createdAt,value
2023-04-21T00:00:28.670Z,17.9692
2023-04-21T00:01:30.385Z,18.7154
2023-04-21T00:02:33.408Z,18.7231
2023-04-21T00:03:33.784Z,19.8692
2023-04-21T00:04:35.464Z,20.7692
2023-04-21T00:05:37.233Z,20.8385
2023-04-21T00:06:38.594Z,20.5385
2023-04-21T00:07:40.231Z,22.8615
2023-04-21T00:08:41.913Z,23.6615
2023-04-21T00:09:43.545Z,20.9692
2023-04-21T00:10:45.162Z,23.6692
2023-04-21T00:11:46.853Z,24.4846
2023-04-21T00:12:48.445Z,28.3308
2023-04-21T00:13:50.150Z,26.6308
2023-04-21T00:14:51.814Z,25.8846
2023-04-21T00:15:53.395Z,28.7077
2023-04-21T00:16:55.012Z,30.2077
2023-04-21T00:17:56.591Z,28.4538
2023-04-21T00:18:58.220Z,27.1154
2023-04-21T00:19:59.898Z,34.2231
2023-04-21T00:21:01.590Z,33.7846
2023-04-21T00:22:03.183Z,31.5000
2023-04-21T00:23:04.839Z,33.3231
2023-04-21T00:24:06.540Z,34.2615
2023-04-21T00:25:08.135Z,31.8385
2023-04-21T00:26:09.781Z,34.3769
2023-04-21T00:27:11.400Z,31.8154
2023-04-21T00:28:13.060Z,30.4615
2023-04-21T00:29:14.801Z,28.0385
2023-04-21T00:30:16.369Z,28.9154
2023-04-21T00:31:18.061Z,29.0462
2023-04-21T00:32:19.700Z,29.2308
2023-04-21T00:33:21.277Z,28.7154
2023-04-21T00:34:22.960Z,29.1231
2023-04-21T00:35:24.604Z,28.2769
2023-04-21T00:36:26.223Z,28.5769
2023-04-21T00:37:27.881Z,28.4000
2023-04-21T00:38:29.539Z,28.3846
2023-04-21T00:39:31.202Z,28.6000
2023-04-21T00:40:32.812Z,26.6462
2023-04-21T00:41:34.498Z,27.9846
2023-04-21T00:42:36.120Z,28.9692
2023-04-21T00:43:37.766Z,29.4077
2023-04-21T00:44:39.441Z,31.1615
2023-04-21T00:45:41.068Z,29.7769
2023-04-21T00:46:42.743Z,29.8692
2023-04-21T00:47:44.414Z,29.5462
2023-04-21T00:48:46.024Z,29.9615
2023-04-21T00:49:47.681Z,30.0692
2023-04-21T00:50:49.282Z,29.0615
2023-04-21T00:51:50.960Z,29.4769
2023-04-21T00:52:52.594Z,34.6538
2023-04-21T00:53:54.231Z,30.9615
2023-04-21T00:54:55.941Z,31.3231
2023-04-21T00:55:57.555Z,31.7846
2023-04-21T00:57:00.500Z,29.7538
2023-04-21T00:58:00.846Z,31.4000
2023-04-21T00:59:02.489Z,30.7000
2023-04-21T01:00:04.219Z,27.7692
2023-04-21T01:01:05.928Z,29.6846
2023-04-21T01:02:07.544Z,26.1846
2023-04-21T01:03:09.342Z,27.8308
2023-04-21T01:04:10.905Z,27.5231
2023-04-21T01:05:12.497Z,25.1538
2023-04-21T01:06:14.177Z,21.6769
2023-04-21T01:07:15.777Z,23.5538
2023-04-21T01:08:17.432Z,22.6769
2023-04-21T01:09:19.238Z,22.0692
2023-04-21T01:10:20.759Z,22.8769
2023-04-21T01:11:22.466Z,23.5385
2023-04-21T01:12:24.105Z,22.4000
2023-04-21T01:13:25.715Z,20.8077
2023-04-21T01:14:27.412Z,20.5077
2023-04-21T01:15:29.002Z,21.8692
2023-04-21T01:16:30.738Z,22.5846
2023-04-21T01:17:32.338Z,21.5615
2023-04-21T01:18:33.974Z,21.8692
2023-04-21T01:19:35.685Z,21.9000
2023-04-21T01:20:37.368Z,20.5308
2023-04-21T01:21:39.005Z,23.4077
2023-04-21T01:22:40.629Z,21.5615
2023-04-21T01:23:42.213Z,22.0846
2023-04-21T01:24:43.867Z,22.9231
2023-04-21T01:25:45.456Z,25.4385
2023-04-21T01:26:47.230Z,22.8308
2023-04-21T01:27:48.853Z,25.6923
2023-04-21T01:28:50.412Z,23.5615
2023-04-21T01:29:52.061Z,25.9077
2023-04-21T01:30:53.778Z,22.2308
2023-04-21T01:31:55.461Z,22.8000
2023-04-21T01:32:57.056Z,20.6077
2023-04-21T01:33:58.744Z,21.6692
2023-04-21T01:35:00.319Z,23.9385
2023-04-21T01:36:01.972Z,21.8462
2023-04-21T01:37:03.654Z,20.1538
2023-04-21T01:38:05.274Z,21.3308
2023-04-21T01:39:06.895Z,19.5923
2023-04-21T01:40:08.534Z,20.0231
2023-04-21T01:41:10.197Z,20.9692
2023-04-21T01:42:11.937Z,21.3692
2023-04-21T01:43:13.509Z,20.2538
2023-04-21T01:44:15.174Z,19.9231
2023-04-21T01:45:16.813Z,18.0692
2023-04-21T01:46:18.484Z,19.5385
2023-04-21T01:47:20.177Z,19.1308
2023-04-21T01:48:21.871Z,18.9385
2023-04-21T01:49:23.421Z,18.2615
2023-04-21T01:50:25.123Z,20.6538
2023-04-21T01:51:26.736Z,18.2077
2023-04-21T01:52:28.456Z,19.2769
2023-04-21T01:53:30.053Z,17.9231
2023-04-21T01:54:31.698Z,20.0692
2023-04-21T01:55:33.355Z,20.9923
2023-04-21T01:56:35.098Z,19.8769
2023-04-21T01:57:36.656Z,17.9077
2023-04-21T01:58:38.297Z,20.0308
2023-04-21T01:59:39.938Z,19.6846
2023-04-21T02:00:41.617Z,20.2769
2023-04-21T02:01:43.227Z,20.1538
2023-04-21T02:02:44.960Z,22.0538
2023-04-21T02:03:46.641Z,22.0769
2023-04-21T02:04:48.108Z,29.0615
2023-04-21T02:05:49.746Z,31.2692
2023-04-21T02:06:51.421Z,29.0462
2023-04-21T02:07:53.042Z,25.5462
2023-04-21T02:08:54.675Z,23.0462
2023-04-21T02:09:56.447Z,22.4385
2023-04-21T02:10:57.938Z,23.1385
2023-04-21T02:11:59.682Z,23.9000
2023-04-21T02:13:01.264Z,26.2615
2023-04-21T02:14:02.915Z,24.6154
2023-04-21T02:15:04.551Z,23.8462
2023-04-21T02:16:13.530Z,21.2000
2023-04-21T02:17:07.850Z,24.6769
2023-04-21T02:18:09.512Z,22.8538
2023-04-21T02:19:11.163Z,22.6077
2023-04-21T02:20:12.766Z,20.7538
2023-04-21T02:21:14.444Z,21.8538
2023-04-21T02:22:16.166Z,20.4154
2023-04-21T02:23:17.804Z,19.6308
2023-04-21T02:24:19.441Z,20.6462
2023-04-21T02:25:21.085Z,19.9615
2023-04-21T02:26:22.724Z,19.9692
2023-04-21T02:27:24.384Z,18.1615
2023-04-21T02:28:26.021Z,18.3692
2023-04-21T02:29:27.664Z,18.8000
2023-04-21T02:30:29.306Z,19.4923
2023-04-21T02:31:30.981Z,20.7385
2023-04-21T02:32:32.851Z,22.1000
2023-04-21T02:33:34.237Z,20.3077
2023-04-21T02:34:35.857Z,21.2000
2023-04-21T02:35:37.509Z,22.2692
2023-04-21T02:36:39.233Z,19.8846
2023-04-21T02:37:40.926Z,21.0615
2023-04-21T02:38:42.520Z,24.1077
2023-04-21T02:39:44.199Z,25.1462
2023-04-21T02:40:45.830Z,24.2077
2023-04-21T02:41:47.401Z,22.9000
2023-04-21T02:42:49.104Z,24.3846
2023-04-21T02:43:50.660Z,21.4692
2023-04-21T02:44:52.309Z,20.9538
2023-04-21T02:45:53.940Z,23.8692
2023-04-21T02:46:55.723Z,20.0385
2023-04-21T02:47:57.323Z,19.3769
2023-04-21T02:48:58.902Z,19.7692
2023-04-21T02:50:00.520Z,18.5538
2023-04-21T02:51:02.201Z,17.8077
2023-04-21T02:52:03.838Z,16.6000
2023-04-21T02:53:05.528Z,16.1462
2023-04-21T02:54:07.129Z,16.8462
2023-04-21T02:55:08.769Z,16.8692
2023-04-21T02:56:10.413Z,17.2077
2023-04-21T02:57:12.050Z,16.9231
2023-04-21T02:58:13.744Z,18.2000
2023-04-21T02:59:15.365Z,19.0846
2023-04-21T03:00:16.985Z,25.4077
2023-04-21T03:01:18.775Z,20.9615
2023-04-21T03:02:20.369Z,18.5231
2023-04-21T03:03:22.167Z,18.5077
2023-04-21T03:04:23.655Z,22.2000
2023-04-21T03:05:25.211Z,22.6462
2023-04-21T03:06:26.880Z,20.8308
2023-04-21T03:07:28.536Z,21.9077
2023-04-21T03:08:30.197Z,20.5923
2023-04-21T03:09:31.816Z,21.1769
2023-04-21T03:10:33.433Z,21.2462
2023-04-21T03:11:35.121Z,18.8769
2023-04-21T03:12:36.763Z,18.7923
2023-04-21T03:13:38.456Z,18.6462
2023-04-21T03:14:40.053Z,17.6308
2023-04-21T03:15:41.810Z,19.4615
2023-04-21T03:16:43.476Z,18.7923
2023-04-21T03:17:45.110Z,18.0385
2023-04-21T03:18:46.811Z,19.0308
2023-04-21T03:19:48.478Z,19.3231
2023-04-21T03:20:50.030Z,18.2000
2023-04-21T03:21:51.712Z,17.4769
2023-04-21T03:22:53.319Z,18.4769
2023-04-21T03:23:54.990Z,18.0077
2023-04-21T03:24:56.662Z,18.4692
2023-04-21T03:25:58.271Z,18.1769
2023-04-21T03:26:59.986Z,17.6923
2023-04-21T03:28:01.643Z,18.3462
2023-04-21T03:29:03.231Z,19.2231
2023-04-21T03:30:04.864Z,19.2000
2023-04-21T03:31:06.472Z,20.4846
2023-04-21T03:32:08.257Z,18.5538
2023-04-21T03:33:09.795Z,18.3154
2023-04-21T03:34:11.484Z,17.7538
2023-04-21T03:35:13.061Z,18.7692
2023-04-21T03:36:14.732Z,18.5000
2023-04-21T03:37:16.455Z,19.0462
2023-04-21T03:38:18.071Z,18.6923
2023-04-21T03:39:20.555Z,23.0000
2023-04-21T03:40:21.310Z,26.8462
2023-04-21T03:41:22.992Z,22.0308
2023-04-21T03:42:24.622Z,19.7538
2023-04-21T03:43:26.346Z,18.1615
2023-04-21T03:44:27.991Z,17.4692
2023-04-21T03:45:29.562Z,19.7077
2023-04-21T03:46:31.159Z,18.3846
2023-04-21T03:47:32.899Z,15.5154
2023-04-21T03:48:34.459Z,18.1308
2023-04-21T03:49:36.101Z,18.4154
2023-04-21T03:50:37.713Z,17.9308
2023-04-21T03:51:39.374Z,16.6692
2023-04-21T03:52:41.016Z,18.1462
2023-04-21T03:53:42.682Z,18.0538
2023-04-21T03:54:44.332Z,18.5154
2023-04-21T03:55:45.957Z,20.5769
2023-04-21T03:56:47.594Z,21.0538
2023-04-21T03:57:49.264Z,22.5000
2023-04-21T03:58:50.936Z,21.3231
2023-04-21T03:59:52.647Z,20.5846
2023-04-21T04:00:54.225Z,20.2000
2023-04-21T04:01:55.868Z,23.5154
2023-04-21T04:02:57.760Z,23.6000
2023-04-21T04:03:59.377Z,25.8538
2023-04-21T04:05:00.801Z,20.7615
2023-04-21T04:06:02.465Z,20.4154
2023-04-21T04:07:04.105Z,21.4385
2023-04-21T04:08:05.717Z,20.1308
2023-04-21T04:09:07.424Z,18.5154
2023-04-21T04:10:09.054Z,18.3462
2023-04-21T04:11:10.709Z,17.1231
2023-04-21T04:12:12.323Z,16.4923
2023-04-21T04:13:13.958Z,15.4308
2023-04-21T04:14:15.669Z,15.4231
2023-04-21T04:15:17.278Z,15.4769
2023-04-21T04:16:18.958Z,14.4000
2023-04-21T04:17:20.573Z,14.7000
2023-04-21T04:18:22.192Z,14.6385
2023-04-21T04:19:23.891Z,14.8538
2023-04-21T04:20:25.520Z,16.6615
2023-04-21T04:21:27.131Z,15.2231
2023-04-21T04:22:28.860Z,14.5308
2023-04-21T04:23:30.520Z,14.8923
2023-04-21T04:24:32.256Z,15.4231
2023-04-21T04:25:33.873Z,15.5692
2023-04-21T04:26:35.402Z,15.4615
2023-04-21T04:27:37.187Z,16.4615
2023-04-21T04:28:38.685Z,15.8462
2023-04-21T04:29:40.356Z,15.4923
2023-04-21T04:30:42.000Z,15.3077
2023-04-21T04:31:43.739Z,14.9923
2023-04-21T04:32:45.505Z,15.3846
2023-04-21T04:33:46.936Z,16.0000
2023-04-21T04:34:48.572Z,16.8385
2023-04-21T04:35:50.257Z,16.2769
2023-04-21T04:36:51.869Z,16.1462
2023-04-21T04:37:53.526Z,15.8538
2023-04-21T04:38:55.167Z,15.4462
2023-04-21T04:39:56.807Z,15.5923
2023-04-21T04:40:58.495Z,16.2846
2023-04-21T04:42:00.142Z,17.0538
2023-04-21T04:43:01.854Z,15.9000
2023-04-21T04:44:03.403Z,15.9692
2023-04-21T04:45:05.063Z,14.9231
2023-04-21T04:46:06.779Z,15.1846
2023-04-21T04:47:08.402Z,15.1308
2023-04-21T04:48:10.021Z,16.2231
2023-04-21T04:49:11.833Z,16.5077
2023-04-21T04:50:13.326Z,15.8308
2023-04-21T04:51:15.015Z,17.0385
2023-04-21T04:52:16.604Z,16.5923
2023-04-21T04:53:18.236Z,16.1846
2023-04-21T04:54:20.049Z,15.7231
2023-04-21T04:55:21.552Z,15.1538
2023-04-21T04:56:23.212Z,15.4538
2023-04-21T04:57:24.832Z,15.9231
2023-04-21T04:58:26.504Z,16.6769
2023-04-21T04:59:30.124Z,17.0000
2023-04-21T05:00:29.776Z,16.2692
2023-04-21T05:01:31.478Z,15.5462
2023-04-21T05:02:33.322Z,15.1308
2023-04-21T05:03:35.053Z,14.8692
2023-04-21T05:04:36.462Z,14.7308
2023-04-21T05:05:38.035Z,14.2077
2023-04-21T05:06:39.692Z,14.4308
2023-04-21T05:07:41.303Z,14.9462
2023-04-21T05:08:43.007Z,15.2846
2023-04-21T05:09:44.695Z,15.5769
2023-04-21T05:10:46.331Z,15.0000
2023-04-21T05:11:48.023Z,15.8231
2023-04-21T05:12:49.636Z,15.9846
2023-04-21T05:13:51.281Z,17.0385
2023-04-21T05:14:52.914Z,16.3462
2023-04-21T05:15:54.574Z,16.6846
2023-04-21T05:16:56.283Z,17.4538
2023-04-21T05:17:57.939Z,16.7615
2023-04-21T05:18:59.513Z,17.1846
2023-04-21T05:20:01.265Z,17.7000
2023-04-21T05:21:02.873Z,17.4308
2023-04-21T05:22:04.498Z,17.6769
2023-04-21T05:23:06.172Z,17.3385
2023-04-21T05:24:07.769Z,17.4385
2023-04-21T05:25:09.438Z,16.9923
2023-04-21T05:26:11.105Z,16.8000
2023-04-21T05:27:12.720Z,17.6231
2023-04-21T05:28:14.410Z,15.6769
2023-04-21T05:29:16.013Z,15.3077
2023-04-21T05:30:17.553Z,15.0077
2023-04-21T05:31:19.236Z,14.9846
2023-04-21T05:32:21.104Z,14.8769
2023-04-21T05:33:22.584Z,15.0846
2023-04-21T05:34:24.144Z,15.9385
2023-04-21T05:35:25.781Z,15.7462
2023-04-21T05:36:27.482Z,15.5231
2023-04-21T05:37:29.061Z,15.0923
2023-04-21T05:38:30.743Z,39.6308
2023-04-21T05:39:32.362Z,23.8462
2023-04-21T05:40:34.138Z,25.5077
2023-04-21T05:41:35.697Z,67.9769
2023-04-21T05:42:37.320Z,26.8692
2023-04-21T05:43:38.976Z,16.2000
2023-04-21T05:44:40.599Z,25.6769
2023-04-21T05:45:42.321Z,23.0231
2023-04-21T05:46:43.956Z,25.9000
2023-04-21T05:47:45.617Z,27.0308
2023-04-21T05:48:47.200Z,20.7923
2023-04-21T05:49:48.946Z,17.2308
2023-04-21T05:50:50.502Z,14.7308
2023-04-21T05:51:52.153Z,13.0692
2023-04-21T05:52:53.781Z,13.0308
2023-04-21T05:53:55.625Z,13.2077
2023-04-21T05:54:57.102Z,13.1769
2023-04-21T05:55:58.747Z,13.4538
2023-04-21T05:57:00.441Z,13.9154
2023-04-21T05:58:02.043Z,13.1769
2023-04-21T05:59:03.692Z,13.3615
2023-04-21T06:00:05.333Z,12.9923
2023-04-21T06:01:06.987Z,12.8538
2023-04-21T06:02:08.704Z,13.1923
2023-04-21T06:03:10.573Z,12.7231
2023-04-21T06:04:12.155Z,13.0692
2023-04-21T06:05:13.736Z,13.2538
2023-04-21T06:06:15.271Z,13.1692
2023-04-21T06:07:18.664Z,13.0154
2023-04-21T06:08:18.562Z,13.0385
2023-04-21T06:09:20.194Z,13.0538
2023-04-21T06:10:21.846Z,13.3077
2023-04-21T06:11:23.496Z,12.9462
2023-04-21T06:12:25.219Z,13.0615
2023-04-21T06:13:26.794Z,13.3692
2023-04-21T06:14:28.430Z,13.4769
2023-04-21T06:15:30.075Z,12.8769
2023-04-21T06:16:31.816Z,12.5000
2023-04-21T06:17:33.410Z,12.9692
2023-04-21T06:18:34.977Z,12.6231
2023-04-21T06:19:36.585Z,13.8154
2023-04-21T06:20:38.249Z,13.1000
2023-04-21T06:21:39.883Z,13.0308
2023-04-21T06:22:41.629Z,12.6231
2023-04-21T06:23:43.208Z,12.2923
2023-04-21T06:24:44.934Z,12.8000
2023-04-21T06:25:46.566Z,12.1077
2023-04-21T06:26:48.199Z,12.6077
2023-04-21T06:27:49.886Z,12.4769
2023-04-21T06:28:51.501Z,11.1615
2023-04-21T06:29:53.144Z,11.2846
2023-04-21T06:30:54.793Z,10.9538
2023-04-21T06:31:56.461Z,11.8231
2023-04-21T06:32:58.143Z,12.0846
2023-04-21T06:33:59.720Z,12.4000
2023-04-21T06:35:01.372Z,12.1462
2023-04-21T06:36:03.012Z,11.7154
2023-04-21T06:37:04.659Z,11.2077
2023-04-21T06:38:06.319Z,11.2538
2023-04-21T06:39:07.935Z,11.2462
2023-04-21T06:40:09.600Z,11.2077
2023-04-21T06:41:11.221Z,11.4077
2023-04-21T06:42:12.921Z,12.2462
2023-04-21T06:43:14.559Z,11.9538
2023-04-21T06:44:16.178Z,12.1385
2023-04-21T06:45:18.001Z,12.1385
2023-04-21T06:46:19.536Z,12.3385
2023-04-21T06:47:21.158Z,11.6846
2023-04-21T06:48:22.799Z,11.2385
2023-04-21T06:49:24.413Z,11.5462
2023-04-21T06:50:26.108Z,11.5538
2023-04-21T06:51:27.718Z,12.0385
2023-04-21T06:52:29.358Z,10.8077
2023-04-21T06:53:31.144Z,10.1692
2023-04-21T06:54:32.746Z,10.0154
2023-04-21T06:55:34.369Z,9.9692
2023-04-21T06:56:36.115Z,10.1077
2023-04-21T06:57:37.677Z,10.7462
2023-04-21T06:58:39.636Z,11.5846
2023-04-21T06:59:40.982Z,10.3385
2023-04-21T07:00:42.666Z,10.4846
2023-04-21T07:01:44.264Z,10.4462
2023-04-21T07:02:45.958Z,10.4538
2023-04-21T07:03:47.729Z,11.2154
2023-04-21T07:04:49.273Z,10.3538
2023-04-21T07:05:50.910Z,10.7462
2023-04-21T07:06:52.476Z,10.6077
2023-04-21T07:07:54.254Z,10.7846
2023-04-21T07:08:55.778Z,10.2538
2023-04-21T07:09:57.533Z,9.5692
2023-04-21T07:10:59.223Z,10.0692
2023-04-21T07:12:00.716Z,10.6231
2023-04-21T07:13:02.431Z,10.7615
2023-04-21T07:14:03.927Z,11.3385
2023-04-21T07:15:05.586Z,11.4615
2023-04-21T07:16:07.300Z,11.3154
2023-04-21T07:17:09.148Z,11.0615
2023-04-21T07:18:10.581Z,11.2154
2023-04-21T07:19:12.167Z,11.9692
2023-04-21T07:20:13.816Z,12.0692
2023-04-21T07:21:15.482Z,12.3154
2023-04-21T07:22:17.073Z,12.7154
2023-04-21T07:23:18.781Z,12.8000
2023-04-21T07:24:20.386Z,12.4308
2023-04-21T07:25:22.033Z,13.2769
2023-04-21T07:26:23.653Z,12.5769
2023-04-21T07:27:25.309Z,14.0000
2023-04-21T07:28:26.969Z,15.1846
2023-04-21T07:29:28.592Z,13.2538
2023-04-21T07:30:30.252Z,12.8154
2023-04-21T07:31:31.959Z,13.0385
2023-04-21T07:32:33.560Z,12.7462
2023-04-21T07:33:35.224Z,12.5462
2023-04-21T07:34:36.793Z,12.8615
2023-04-21T07:35:38.431Z,12.8615
2023-04-21T07:36:40.087Z,12.6154
2023-04-21T07:37:41.819Z,15.3538
2023-04-21T07:38:43.503Z,22.3769
2023-04-21T07:39:45.258Z,14.4538
2023-04-21T07:40:46.690Z,14.2769
2023-04-21T07:41:48.328Z,13.5385
2023-04-21T07:42:49.967Z,13.4000
2023-04-21T07:43:53.719Z,13.0923
2023-04-21T07:44:53.281Z,13.4462
2023-04-21T07:45:54.924Z,13.0538
2023-04-21T07:46:56.563Z,12.8615
2023-04-21T07:47:58.207Z,13.0923
2023-04-21T07:49:01.412Z,13.1000
2023-04-21T07:50:01.639Z,13.6308
2023-04-21T07:51:03.213Z,13.4692
2023-04-21T07:52:04.852Z,13.4154
2023-04-21T07:53:06.569Z,14.0769
2023-04-21T07:54:08.225Z,14.1077
2023-04-21T07:55:09.808Z,13.0923
2023-04-21T07:56:11.436Z,13.3231
2023-04-21T07:57:13.094Z,13.7308
2023-04-21T07:58:14.763Z,13.2769
2023-04-21T07:59:16.424Z,13.2231
2023-04-21T08:00:17.994Z,12.9077
2023-04-21T08:01:19.690Z,13.6769
2023-04-21T08:02:21.335Z,13.8077
2023-04-21T08:03:24.624Z,12.9923
2023-04-21T08:04:24.848Z,14.1923
2023-04-21T08:05:30.305Z,13.5846
2023-04-21T08:06:27.947Z,12.6308
2023-04-21T08:07:29.512Z,13.4154
2023-04-21T08:08:32.080Z,13.4154
2023-04-21T08:09:32.775Z,12.7769
2023-04-21T08:10:34.393Z,13.0077
2023-04-21T08:11:36.061Z,12.9231
2023-04-21T08:12:37.683Z,12.7923
2023-04-21T08:13:39.333Z,13.0077
2023-04-21T08:14:41.037Z,12.9154
2023-04-21T08:15:42.593Z,12.6538
2023-04-21T08:16:44.425Z,13.1000
2023-04-21T08:17:45.951Z,12.6615
2023-04-21T08:18:47.572Z,12.2769
2023-04-21T08:19:49.227Z,13.0000
2023-04-21T08:20:50.826Z,12.6923
2023-04-21T08:21:52.972Z,12.7077
2023-04-21T08:22:54.248Z,13.1385
2023-04-21T08:23:55.800Z,12.9538
2023-04-21T08:24:57.428Z,13.3462
2023-04-21T08:25:59.045Z,13.2462
2023-04-21T08:27:00.690Z,13.1538
2023-04-21T08:28:02.350Z,13.3385
2023-04-21T08:29:04.627Z,13.5077
2023-04-21T08:30:05.844Z,13.0692
2023-04-21T08:31:07.403Z,13.1308
2023-04-21T08:32:09.019Z,13.3154
2023-04-21T08:33:10.740Z,13.2077
2023-04-21T08:34:12.368Z,12.7462
2023-04-21T08:35:13.972Z,12.8538
2023-04-21T08:36:28.391Z,12.4538
2023-04-21T08:37:17.213Z,13.3154
2023-04-21T08:38:18.897Z,13.8692
2023-04-21T08:39:20.687Z,13.5000
2023-04-21T08:40:22.258Z,13.8308
2023-04-21T08:41:23.793Z,13.7462
2023-04-21T08:42:25.431Z,13.1769
2023-04-21T08:43:27.082Z,13.0769
2023-04-21T08:44:28.723Z,12.5846
2023-04-21T08:45:30.500Z,13.4462
2023-04-21T08:46:32.122Z,14.2000
2023-04-21T08:47:33.738Z,14.0308
2023-04-21T08:48:35.300Z,14.9000
2023-04-21T08:49:37.032Z,14.5846
2023-04-21T08:50:38.602Z,14.7154
2023-04-21T08:51:40.233Z,14.2000
2023-04-21T08:52:41.880Z,14.0385
2023-04-21T08:53:43.508Z,14.0846
2023-04-21T08:54:45.177Z,14.3308
2023-04-21T08:55:53.723Z,13.7692
2023-04-21T08:56:48.409Z,13.5308
2023-04-21T08:57:49.910Z,13.4538
2023-04-21T08:58:51.645Z,13.4846
2023-04-21T08:59:53.284Z,12.9615
2023-04-21T09:00:54.959Z,13.2000
2023-04-21T09:01:56.491Z,12.9385
2023-04-21T09:03:01.357Z,12.9077
2023-04-21T09:03:59.918Z,19.2077
2023-04-21T09:05:01.783Z,22.3923
2023-04-21T09:06:03.568Z,13.3769
2023-04-21T09:07:04.795Z,16.8846
2023-04-21T09:08:06.363Z,13.6923
2023-04-21T09:09:08.223Z,13.5923
2023-04-21T09:10:09.682Z,13.2308
2023-04-21T09:11:11.280Z,12.9231
2023-04-21T09:12:12.942Z,14.3615
2023-04-21T09:13:14.515Z,13.4462
2023-04-21T09:14:16.171Z,12.7923
2023-04-21T09:15:17.856Z,13.1692
2023-04-21T09:16:19.493Z,12.5846
2023-04-21T09:17:21.112Z,12.9154
2023-04-21T09:18:22.776Z,13.3000
2023-04-21T09:19:24.352Z,13.2615
2023-04-21T09:20:26.234Z,13.0538
2023-04-21T09:21:28.392Z,14.3077
2023-04-21T09:22:29.464Z,15.0077
2023-04-21T09:23:30.904Z,13.9308
2023-04-21T09:24:32.545Z,14.1308
2023-04-21T09:25:34.187Z,13.5538
2023-04-21T09:26:36.875Z,13.4308
2023-04-21T09:27:37.484Z,14.1538
2023-04-21T09:28:39.124Z,14.2769
2023-04-21T09:29:40.749Z,14.4077
2023-04-21T09:30:42.494Z,14.0077
2023-04-21T09:31:44.257Z,13.6231
2023-04-21T09:32:45.810Z,13.4231
2023-04-21T09:33:57.606Z,13.3231
2023-04-21T09:34:49.114Z,15.5154
2023-04-21T09:35:50.603Z,34.4462
2023-04-21T09:36:52.282Z,16.4154
2023-04-21T09:37:53.879Z,16.1462
2023-04-21T09:39:13.093Z,14.9077
2023-04-21T09:40:04.198Z,14.2538
2023-04-21T09:40:58.783Z,14.1385
2023-04-21T09:42:00.474Z,14.6385
2023-04-21T09:43:02.095Z,14.8077
2023-04-21T09:44:03.709Z,14.9308
2023-04-21T09:45:23.170Z,15.1462
2023-04-21T09:46:07.063Z,14.9000
2023-04-21T09:47:08.706Z,14.6769
2023-04-21T09:48:10.336Z,14.7231
2023-04-21T09:49:11.901Z,13.9538
2023-04-21T09:50:13.695Z,14.5154
2023-04-21T09:51:30.716Z,14.2000
2023-04-21T09:52:19.449Z,15.0769
2023-04-21T09:53:18.559Z,15.4231
2023-04-21T09:54:28.996Z,14.5462
2023-04-21T09:55:21.927Z,14.2077
2023-04-21T09:56:23.490Z,13.1769
2023-04-21T09:57:25.162Z,13.9000
2023-04-21T09:58:26.865Z,14.0000
2023-04-21T09:59:28.449Z,12.6077
2023-04-21T10:00:29.998Z,13.1077
2023-04-21T10:01:31.658Z,14.0308
2023-04-21T10:02:33.423Z,13.2615
2023-04-21T10:03:35.101Z,13.0923
2023-04-21T10:04:36.719Z,12.6692
2023-04-21T10:05:40.253Z,12.7462
2023-04-21T10:06:39.813Z,12.3308
2023-04-21T10:07:41.495Z,12.7462
2023-04-21T10:08:43.089Z,12.1154
2023-04-21T10:09:44.753Z,11.9000
2023-04-21T10:10:46.372Z,11.9692
2023-04-21T10:11:48.034Z,12.0846
2023-04-21T10:25:56.397Z,8.3083
2023-04-21T10:26:57.966Z,8.7846
2023-04-21T10:27:59.671Z,8.8692
2023-04-21T10:29:01.326Z,9.0000
2023-04-21T10:30:02.870Z,8.3154
2023-04-21T10:31:04.639Z,8.4154
2023-04-21T10:32:08.966Z,15.5692
2023-04-21T10:33:07.847Z,11.8846
2023-04-21T10:34:09.500Z,9.3385
2023-04-21T10:35:11.138Z,8.5615
2023-04-21T10:36:12.782Z,8.2385
2023-04-21T10:37:14.348Z,9.1154
2023-04-21T10:38:16.028Z,9.6308
2023-04-21T10:39:17.790Z,8.0154
2023-04-21T10:40:19.460Z,8.3769
2023-04-21T10:41:20.938Z,8.2846
2023-04-21T10:42:22.619Z,8.3923
2023-04-21T10:43:24.302Z,8.2077
2023-04-21T10:44:25.949Z,8.7000
2023-04-21T10:45:27.591Z,8.7385
2023-04-21T10:46:29.262Z,9.1308
2023-04-21T10:47:31.045Z,9.2462
2023-04-21T10:48:32.531Z,9.1154
2023-04-21T10:49:34.238Z,8.8385
2023-04-21T10:50:37.482Z,8.7462
2023-04-21T10:51:37.464Z,8.9538
2023-04-21T10:52:39.084Z,9.3154
2023-04-21T10:53:40.755Z,9.3692
2023-04-21T10:54:42.465Z,9.0231
2023-04-21T10:55:44.034Z,9.5615
2023-04-21T10:56:45.692Z,9.4615
2023-04-21T10:57:47.321Z,9.5231
2023-04-21T10:58:48.991Z,9.1308
2023-04-21T10:59:50.663Z,9.4077
2023-04-21T11:00:52.278Z,9.4462
2023-04-21T11:01:53.899Z,9.0538
2023-04-21T11:02:55.667Z,9.9692
2023-04-21T11:03:57.482Z,9.6538
2023-04-21T11:04:59.153Z,9.8154
2023-04-21T11:06:00.498Z,9.3615
2023-04-21T11:07:02.169Z,9.6462
2023-04-21T11:08:03.773Z,9.5308
2023-04-21T11:09:05.427Z,9.2769
2023-04-21T11:10:06.978Z,9.8077
2023-04-21T11:11:08.673Z,8.7538
2023-04-21T11:12:10.323Z,8.6154
2023-04-21T11:13:11.980Z,8.4692
2023-04-21T11:14:13.644Z,8.2308
2023-04-21T11:15:15.269Z,8.4615
2023-04-21T11:16:16.964Z,8.4538
2023-04-21T11:17:18.596Z,8.8308
2023-04-21T11:18:20.214Z,8.7462
2023-04-21T11:19:21.892Z,8.5846
2023-04-21T11:20:23.484Z,8.4846
2023-04-21T11:21:25.140Z,8.2000
2023-04-21T11:22:26.789Z,8.3615
2023-04-21T11:23:28.474Z,8.4692
2023-04-21T11:24:30.097Z,8.9077
2023-04-21T11:25:31.712Z,8.6846
2023-04-21T11:26:33.332Z,8.8231
2023-04-21T11:27:34.978Z,9.8615
2023-04-21T11:28:36.705Z,9.3615
2023-04-21T11:29:38.301Z,8.3231
2023-04-21T11:30:39.927Z,8.1000
2023-04-21T11:31:41.580Z,8.0846
2023-04-21T11:32:43.227Z,8.2769
2023-04-21T11:33:44.830Z,8.1615
2023-04-21T11:34:46.531Z,8.0538
2023-04-21T11:35:48.131Z,7.7846
2023-04-21T11:36:49.773Z,7.5615
2023-04-21T11:37:51.423Z,8.2615
2023-04-21T11:38:53.034Z,8.5615
2023-04-21T11:39:54.766Z,7.7769
2023-04-21T11:40:56.366Z,8.2385
2023-04-21T11:41:57.958Z,8.1462
2023-04-21T11:42:59.634Z,8.0692
2023-04-21T11:44:01.269Z,7.7615
2023-04-21T11:45:02.964Z,8.0077
2023-04-21T11:46:04.546Z,8.1462
2023-04-21T11:47:06.193Z,8.2923
2023-04-21T11:48:07.895Z,7.7077
2023-04-21T11:49:09.474Z,7.5385
2023-04-21T11:50:11.163Z,7.8000
2023-04-21T11:51:12.780Z,7.9846
2023-04-21T11:52:14.375Z,8.5692
2023-04-21T11:53:16.061Z,11.0385
2023-04-21T11:54:17.683Z,10.1385
2023-04-21T11:55:19.371Z,8.1769
2023-04-21T11:56:20.954Z,8.2769
2023-04-21T11:57:22.626Z,8.7615
2023-04-21T11:58:24.252Z,8.3385
2023-04-21T11:59:26.148Z,7.9308
2023-04-21T12:00:27.537Z,8.0385
2023-04-21T12:01:29.152Z,7.6615
2023-04-21T12:02:30.909Z,7.0077
2023-04-21T12:03:32.615Z,7.1462
2023-04-21T12:04:34.668Z,7.3231
2023-04-21T12:05:35.805Z,7.1077
2023-04-21T12:06:37.353Z,8.1615
2023-04-21T12:07:39.014Z,7.1846
2023-04-21T12:08:40.618Z,6.6846
2023-04-21T12:09:42.277Z,6.9538
2023-04-21T12:10:43.931Z,7.7615
2023-04-21T12:11:46.002Z,7.7769
2023-04-21T12:12:47.226Z,29.1154
2023-04-21T12:13:48.870Z,25.6923
2023-04-21T12:14:50.613Z,21.2615
2023-04-21T12:15:52.290Z,12.8692
2023-04-21T12:16:53.925Z,11.3923
2023-04-21T12:17:55.559Z,10.8538
2023-04-21T12:18:57.094Z,9.7308
2023-04-21T12:19:58.732Z,10.5154
2023-04-21T12:21:00.425Z,10.1385
2023-04-21T12:22:02.009Z,9.5846
2023-04-21T12:23:03.686Z,9.1538
2023-04-21T12:24:05.293Z,8.8077
2023-04-21T12:25:06.942Z,8.6077
2023-04-21T12:26:08.615Z,8.8154
2023-04-21T12:27:10.243Z,8.4231
2023-04-21T12:28:11.857Z,8.3154
2023-04-21T12:29:13.520Z,9.2923
2023-04-21T12:30:15.160Z,8.8077
2023-04-21T12:31:17.016Z,8.4154
2023-04-21T12:32:18.627Z,8.6769
2023-04-21T12:33:20.219Z,8.9077
2023-04-21T12:34:21.800Z,8.5846
2023-04-21T12:35:23.418Z,8.7231
2023-04-21T12:36:25.077Z,8.3538
2023-04-21T12:37:26.661Z,8.2308
2023-04-21T12:38:28.388Z,8.1231
2023-04-21T12:39:30.124Z,8.7615
2023-04-21T12:40:31.582Z,8.4462
2023-04-21T12:41:33.281Z,8.5538
2023-04-21T12:42:37.512Z,7.7615